sensor_id;sensor_type;location;lat;lon;timestamp;pressure;altitude;pressure_sealevel;temperature;humidity
28181;BME280;15464;50.988;10.318;2023-08-01T00:00:10;97617.22;;;15.76;100.00
28181;BME280;15464;50.988;10.318;2023-08-01T00:02:38;97599.16;;;15.78;100.00
28181;BME280;15464;50.988;10.318;2023-08-01T00:05:05;97592.94;;;15.71;100.00
28181;BME280;15464;50.988;10.318;2023-08-01T00:07:32;97593.59;;;15.73;100.00
28181;BME280;15464;50.988;10.318;2023-08-01T00:10:03;97584.28;;;15.69;100.00
28181;BME280;15464;50.988;10.318;2023-08-01T00:12:30;97581.84;;;15.67;100.00
28181;BME280;15464;50.988;10.318;2023-08-01T00:14:57;97579.34;;;15.66;100.00
28181;BME280;15464;50.988;10.318;2023-08-01T00:17:24;97577.28;;;15.68;100.00
28181;BME280;15464;50.988;10.318;2023-08-01T00:19:51;97561.25;;;15.68;100.00
28181;BME280;15464;50.988;10.318;2023-08-01T00:22:17;97554.69;;;15.70;100.00
28181;BME280;15464;50.988;10.318;2023-08-01T00:24:44;97548.13;;;15.73;100.00
28181;BME280;15464;50.988;10.318;2023-08-01T00:27:11;97548.50;;;15.70;100.00
28181;BME280;15464;50.988;10.318;2023-08-01T00:29:37;97539.47;;;15.71;100.00
28181;BME280;15464;50.988;10.318;2023-08-01T00:32:04;97532.25;;;15.65;100.00
28181;BME280;15464;50.988;10.318;2023-08-01T00:34:31;97519.75;;;15.72;100.00
28181;BME280;15464;50.988;10.318;2023-08-01T00:36:58;97508.22;;;15.71;100.00
28181;BME280;15464;50.988;10.318;2023-08-01T00:39:24;97504.09;;;15.69;100.00
28181;BME280;15464;50.988;10.318;2023-08-01T00:41:51;97504.34;;;15.74;100.00
28181;BME280;15464;50.988;10.318;2023-08-01T00:44:18;97497.94;;;15.75;100.00
28181;BME280;15464;50.988;10.318;2023-08-01T00:46:45;97489.31;;;15.73;100.00
28181;BME280;15464;50.988;10.318;2023-08-01T00:49:12;97481.69;;;15.70;100.00
28181;BME280;15464;50.988;10.318;2023-08-01T00:51:39;97483.97;;;15.73;100.00
28181;BME280;15464;50.988;10.318;2023-08-01T00:54:07;97479.44;;;15.73;100.00
28181;BME280;15464;50.988;10.318;2023-08-01T00:56:34;97479.22;;;15.75;100.00
28181;BME280;15464;50.988;10.318;2023-08-01T00:59:01;97478.22;;;15.76;100.00
28181;BME280;15464;50.988;10.318;2023-08-01T01:01:28;97467.53;;;15.76;100.00
28181;BME280;15464;50.988;10.318;2023-08-01T01:03:55;97464.03;;;15.76;100.00
28181;BME280;15464;50.988;10.318;2023-08-01T01:06:31;97464.25;;;15.74;100.00
28181;BME280;15464;50.988;10.318;2023-08-01T01:08:59;97445.53;;;15.74;100.00
28181;BME280;15464;50.988;10.318;2023-08-01T01:11:26;97445.31;;;15.76;100.00
28181;BME280;15464;50.988;10.318;2023-08-01T01:13:53;97441.22;;;15.80;100.00
28181;BME280;15464;50.988;10.318;2023-08-01T01:16:20;97444.09;;;15.78;100.00
28181;BME280;15464;50.988;10.318;2023-08-01T01:18:47;97429.91;;;15.78;100.00
28181;BME280;15464;50.988;10.318;2023-08-01T01:21:13;97406.66;;;15.78;100.00
28181;BME280;15464;50.988;10.318;2023-08-01T01:23:41;97385.66;;;15.75;100.00
28181;BME280;15464;50.988;10.318;2023-08-01T01:26:09;97375.78;;;15.76;100.00
28181;BME280;15464;50.988;10.318;2023-08-01T01:28:37;97374.97;;;15.75;100.00
28181;BME280;15464;50.988;10.318;2023-08-01T01:31:04;97357.69;;;15.71;100.00
28181;BME280;15464;50.988;10.318;2023-08-01T01:33:30;97356.47;;;15.73;100.00
28181;BME280;15464;50.988;10.318;2023-08-01T01:36:00;97348.66;;;15.72;100.00
28181;BME280;15464;50.988;10.318;2023-08-01T01:38:27;97340.22;;;15.75;100.00
28181;BME280;15464;50.988;10.318;2023-08-01T01:40:53;97326.84;;;15.75;100.00
28181;BME280;15464;50.988;10.318;2023-08-01T01:43:20;97317.41;;;15.79;100.00
28181;BME280;15464;50.988;10.318;2023-08-01T01:45:47;97353.19;;;15.78;100.00
28181;BME280;15464;50.988;10.318;2023-08-01T01:48:13;97373.56;;;15.79;100.00
28181;BME280;15464;50.988;10.318;2023-08-01T01:50:40;97394.53;;;15.82;100.00
28181;BME280;15464;50.988;10.318;2023-08-01T01:53:07;97394.34;;;15.84;100.00
28181;BME280;15464;50.988;10.318;2023-08-01T01:55:33;97388.16;;;15.83;100.00
28181;BME280;15464;50.988;10.318;2023-08-01T01:58:01;97394.13;;;15.85;100.00
28181;BME280;15464;50.988;10.318;2023-08-01T02:00:27;97387.53;;;15.81;100.00
28181;BME280;15464;50.988;10.318;2023-08-01T02:02:54;97399.88;;;15.82;100.00
28181;BME280;15464;50.988;10.318;2023-08-01T02:05:23;97394.94;;;15.79;100.00
28181;BME280;15464;50.988;10.318;2023-08-01T02:07:50;97405.63;;;15.79;100.00
28181;BME280;15464;50.988;10.318;2023-08-01T02:10:17;97396.59;;;15.80;100.00
28181;BME280;15464;50.988;10.318;2023-08-01T02:12:43;97384.66;;;15.83;100.00
28181;BME280;15464;50.988;10.318;2023-08-01T02:15:10;97382.81;;;15.83;100.00
28181;BME280;15464;50.988;10.318;2023-08-01T02:17:37;97371.09;;;15.84;100.00
28181;BME280;15464;50.988;10.318;2023-08-01T02:20:04;97372.75;;;15.85;100.00
28181;BME280;15464;50.988;10.318;2023-08-01T02:22:31;97370.47;;;15.82;100.00
28181;BME280;15464;50.988;10.318;2023-08-01T02:24:57;97370.06;;;15.85;100.00
28181;BME280;15464;50.988;10.318;2023-08-01T02:27:24;97374.63;;;15.91;100.00
28181;BME280;15464;50.988;10.318;2023-08-01T02:29:50;97377.06;;;15.86;100.00
28181;BME280;15464;50.988;10.318;2023-08-01T02:32:17;97371.13;;;15.91;100.00
28181;BME280;15464;50.988;10.318;2023-08-01T02:34:44;97361.44;;;15.96;100.00
28181;BME280;15464;50.988;10.318;2023-08-01T02:37:11;97347.69;;;15.93;100.00
28181;BME280;15464;50.988;10.318;2023-08-01T02:39:38;97362.91;;;15.92;100.00
28181;BME280;15464;50.988;10.318;2023-08-01T02:42:04;97364.31;;;15.88;100.00
28181;BME280;15464;50.988;10.318;2023-08-01T02:44:31;97345.78;;;15.93;100.00
28181;BME280;15464;50.988;10.318;2023-08-01T02:46:58;97347.88;;;15.98;100.00
28181;BME280;15464;50.988;10.318;2023-08-01T02:49:25;97346.63;;;16.00;100.00
28181;BME280;15464;50.988;10.318;2023-08-01T02:51:51;97326.50;;;15.98;100.00
28181;BME280;15464;50.988;10.318;2023-08-01T02:54:18;97323.19;;;16.02;100.00
28181;BME280;15464;50.988;10.318;2023-08-01T02:56:45;97330.59;;;16.00;100.00
28181;BME280;15464;50.988;10.318;2023-08-01T02:59:11;97332.22;;;16.01;100.00
28181;BME280;15464;50.988;10.318;2023-08-01T03:01:38;97326.88;;;16.01;100.00
28181;BME280;15464;50.988;10.318;2023-08-01T03:04:06;97325.66;;;16.04;100.00
28181;BME280;15464;50.988;10.318;2023-08-01T03:06:33;97319.28;;;15.98;100.00
28181;BME280;15464;50.988;10.318;2023-08-01T03:09:00;97311.88;;;16.00;100.00
28181;BME280;15464;50.988;10.318;2023-08-01T03:11:27;97305.09;;;15.91;100.00
28181;BME280;15464;50.988;10.318;2023-08-01T03:13:54;97305.69;;;15.93;100.00
28181;BME280;15464;50.988;10.318;2023-08-01T03:16:21;97288.63;;;15.94;100.00
28181;BME280;15464;50.988;10.318;2023-08-01T03:18:47;97296.25;;;15.97;100.00
28181;BME280;15464;50.988;10.318;2023-08-01T03:21:14;97282.25;;;15.95;100.00
28181;BME280;15464;50.988;10.318;2023-08-01T03:23:41;97284.28;;;15.93;100.00
28181;BME280;15464;50.988;10.318;2023-08-01T03:26:08;97277.09;;;15.94;100.00
28181;BME280;15464;50.988;10.318;2023-08-01T03:28:34;97280.00;;;15.92;100.00
28181;BME280;15464;50.988;10.318;2023-08-01T03:31:02;97277.91;;;15.94;100.00
28181;BME280;15464;50.988;10.318;2023-08-01T03:33:28;97271.34;;;15.90;100.00
28181;BME280;15464;50.988;10.318;2023-08-01T03:35:55;97263.13;;;15.85;100.00
28181;BME280;15464;50.988;10.318;2023-08-01T03:38:22;97259.81;;;15.83;100.00
28181;BME280;15464;50.988;10.318;2023-08-01T03:40:49;97264.16;;;15.84;100.00
28181;BME280;15464;50.988;10.318;2023-08-01T03:43:15;97252.00;;;15.88;100.00
28181;BME280;15464;50.988;10.318;2023-08-01T03:45:42;97258.59;;;15.86;100.00
28181;BME280;15464;50.988;10.318;2023-08-01T03:48:09;97261.88;;;15.88;100.00
28181;BME280;15464;50.988;10.318;2023-08-01T03:50:35;97256.13;;;15.84;100.00
28181;BME280;15464;50.988;10.318;2023-08-01T03:53:02;97255.31;;;15.84;100.00
28181;BME280;15464;50.988;10.318;2023-08-01T03:55:29;97249.53;;;15.87;100.00
28181;BME280;15464;50.988;10.318;2023-08-01T03:57:55;97236.38;;;15.92;100.00
28181;BME280;15464;50.988;10.318;2023-08-01T04:00:22;97236.59;;;15.90;100.00
28181;BME280;15464;50.988;10.318;2023-08-01T04:02:49;97245.00;;;15.87;100.00
28181;BME280;15464;50.988;10.318;2023-08-01T04:05:15;97242.75;;;15.84;100.00
28181;BME280;15464;50.988;10.318;2023-08-01T04:07:42;97235.56;;;15.91;100.00
28181;BME280;15464;50.988;10.318;2023-08-01T04:10:09;97246.47;;;15.96;100.00
28181;BME280;15464;50.988;10.318;2023-08-01T04:12:36;97241.94;;;15.90;100.00
28181;BME280;15464;50.988;10.318;2023-08-01T04:15:03;97236.78;;;15.95;100.00
28181;BME280;15464;50.988;10.318;2023-08-01T04:17:30;97234.75;;;15.97;100.00
28181;BME280;15464;50.988;10.318;2023-08-01T04:19:56;97242.75;;;15.97;100.00
28181;BME280;15464;50.988;10.318;2023-08-01T04:22:23;97239.66;;;16.00;100.00
28181;BME280;15464;50.988;10.318;2023-08-01T04:24:50;97242.56;;;15.92;100.00
28181;BME280;15464;50.988;10.318;2023-08-01T04:27:17;97242.97;;;15.89;100.00
28181;BME280;15464;50.988;10.318;2023-08-01T04:29:44;97252.00;;;15.88;100.00
28181;BME280;15464;50.988;10.318;2023-08-01T04:32:10;97246.25;;;15.85;100.00
28181;BME280;15464;50.988;10.318;2023-08-01T04:34:43;97252.00;;;15.88;100.00
28181;BME280;15464;50.988;10.318;2023-08-01T04:37:10;97247.28;;;15.90;100.00
28181;BME280;15464;50.988;10.318;2023-08-01T04:39:39;97261.47;;;15.91;100.00
28181;BME280;15464;50.988;10.318;2023-08-01T04:42:06;97236.38;;;15.98;100.00
28181;BME280;15464;50.988;10.318;2023-08-01T04:44:33;97259.00;;;16.02;100.00
28181;BME280;15464;50.988;10.318;2023-08-01T04:46:59;97224.88;;;16.04;100.00
28181;BME280;15464;50.988;10.318;2023-08-01T04:49:26;97223.41;;;16.08;100.00
28181;BME280;15464;50.988;10.318;2023-08-01T04:51:53;97224.03;;;16.10;100.00
28181;BME280;15464;50.988;10.318;2023-08-01T04:54:20;97225.69;;;16.11;100.00
28181;BME280;15464;50.988;10.318;2023-08-01T04:56:47;97226.47;;;16.12;100.00
28181;BME280;15464;50.988;10.318;2023-08-01T04:59:13;97209.59;;;16.18;100.00
28181;BME280;15464;50.988;10.318;2023-08-01T05:01:40;97203.44;;;16.18;100.00
28181;BME280;15464;50.988;10.318;2023-08-01T05:04:07;97185.13;;;16.14;100.00
28181;BME280;15464;50.988;10.318;2023-08-01T05:06:34;97176.47;;;16.12;100.00
28181;BME280;15464;50.988;10.318;2023-08-01T05:09:00;97169.72;;;16.03;100.00
28181;BME280;15464;50.988;10.318;2023-08-01T05:11:27;97155.75;;;15.95;100.00
28181;BME280;15464;50.988;10.318;2023-08-01T05:13:54;97152.03;;;15.89;100.00
28181;BME280;15464;50.988;10.318;2023-08-01T05:16:20;97167.47;;;15.94;100.00
28181;BME280;15464;50.988;10.318;2023-08-01T05:18:47;97171.78;;;15.95;100.00
28181;BME280;15464;50.988;10.318;2023-08-01T05:21:14;97179.59;;;15.96;100.00
28181;BME280;15464;50.988;10.318;2023-08-01T05:23:40;97163.56;;;15.96;100.00
28181;BME280;15464;50.988;10.318;2023-08-01T05:26:07;97170.13;;;15.94;100.00
28181;BME280;15464;50.988;10.318;2023-08-01T05:28:34;97169.94;;;15.95;100.00
28181;BME280;15464;50.988;10.318;2023-08-01T05:31:00;97165.41;;;16.02;100.00
28181;BME280;15464;50.988;10.318;2023-08-01T05:33:27;97155.75;;;15.95;100.00
28181;BME280;15464;50.988;10.318;2023-08-01T05:35:54;97152.44;;;15.99;100.00
28181;BME280;15464;50.988;10.318;2023-08-01T05:38:20;97145.47;;;15.98;100.00
28181;BME280;15464;50.988;10.318;2023-08-01T05:40:47;97138.84;;;16.01;100.00
28181;BME280;15464;50.988;10.318;2023-08-01T05:43:14;97143.38;;;16.00;100.00
28181;BME280;15464;50.988;10.318;2023-08-01T05:45:40;97153.47;;;15.98;100.00
28181;BME280;15464;50.988;10.318;2023-08-01T05:48:07;97155.34;;;15.98;100.00
28181;BME280;15464;50.988;10.318;2023-08-01T05:50:34;97152.44;;;15.99;100.00
28181;BME280;15464;50.988;10.318;2023-08-01T05:53:01;97163.75;;;15.95;100.00
28181;BME280;15464;50.988;10.318;2023-08-01T05:55:28;97160.88;;;15.96;100.00
28181;BME280;15464;50.988;10.318;2023-08-01T05:57:54;97171.16;;;15.99;100.00
28181;BME280;15464;50.988;10.318;2023-08-01T06:00:21;97184.13;;;16.02;100.00
28181;BME280;15464;50.988;10.318;2023-08-01T06:02:48;97174.88;;;16.05;100.00
28181;BME280;15464;50.988;10.318;2023-08-01T06:05:15;97163.53;;;16.09;100.00
28181;BME280;15464;50.988;10.318;2023-08-01T06:07:42;97156.13;;;16.11;100.00
28181;BME280;15464;50.988;10.318;2023-08-01T06:10:09;97160.44;;;16.12;100.00
28181;BME280;15464;50.988;10.318;2023-08-01T06:12:35;97161.06;;;16.14;100.00
28181;BME280;15464;50.988;10.318;2023-08-01T06:15:03;97150.34;;;16.14;100.00
28181;BME280;15464;50.988;10.318;2023-08-01T06:17:30;97146.66;;;16.16;100.00
28181;BME280;15464;50.988;10.318;2023-08-01T06:19:57;97147.47;;;16.23;100.00
28181;BME280;15464;50.988;10.318;2023-08-01T06:22:24;97150.13;;;16.23;100.00
28181;BME280;15464;50.988;10.318;2023-08-01T06:24:50;97135.72;;;16.24;100.00
28181;BME280;15464;50.988;10.318;2023-08-01T06:27:17;97130.97;;;16.26;100.00
28181;BME280;15464;50.988;10.318;2023-08-01T06:29:44;97130.94;;;16.32;100.00
28181;BME280;15464;50.988;10.318;2023-08-01T06:32:11;97130.13;;;16.32;100.00
28181;BME280;15464;50.988;10.318;2023-08-01T06:34:38;97137.75;;;16.35;100.00
28181;BME280;15464;50.988;10.318;2023-08-01T06:37:05;97136.28;;;16.39;100.00
28181;BME280;15464;50.988;10.318;2023-08-01T06:39:31;97148.41;;;16.41;100.00
28181;BME280;15464;50.988;10.318;2023-08-01T06:41:58;97150.28;;;16.41;100.00
28181;BME280;15464;50.988;10.318;2023-08-01T06:44:25;97146.78;;;16.40;100.00
28181;BME280;15464;50.988;10.318;2023-08-01T06:46:51;97151.94;;;16.42;100.00
28181;BME280;15464;50.988;10.318;2023-08-01T06:49:18;97136.28;;;16.39;100.00
28181;BME280;15464;50.988;10.318;2023-08-01T06:51:44;97150.69;;;16.31;100.00
28181;BME280;15464;50.988;10.318;2023-08-01T06:54:11;97153.78;;;16.41;100.00
28181;BME280;15464;50.988;10.318;2023-08-01T06:56:38;97177.41;;;16.44;100.00
28181;BME280;15464;50.988;10.318;2023-08-01T06:59:05;97175.56;;;16.45;100.00
28181;BME280;15464;50.988;10.318;2023-08-01T07:01:32;97172.28;;;16.43;100.00
28181;BME280;15464;50.988;10.318;2023-08-01T07:03:59;97176.19;;;16.47;100.00
28181;BME280;15464;50.988;10.318;2023-08-01T07:06:26;97191.22;;;16.48;100.00
28181;BME280;15464;50.988;10.318;2023-08-01T07:08:53;97182.72;;;16.58;100.00
28181;BME280;15464;50.988;10.318;2023-08-01T07:11:19;97183.75;;;16.63;100.00
28181;BME280;15464;50.988;10.318;2023-08-01T07:13:46;97195.72;;;16.67;100.00
28181;BME280;15464;50.988;10.318;2023-08-01T07:16:12;97182.72;;;16.71;100.00
28181;BME280;15464;50.988;10.318;2023-08-01T07:18:39;97187.88;;;16.72;100.00
28181;BME280;15464;50.988;10.318;2023-08-01T07:21:06;97196.25;;;16.82;100.00
28181;BME280;15464;50.988;10.318;2023-08-01T07:23:33;97191.13;;;16.74;100.00
28181;BME280;15464;50.988;10.318;2023-08-01T07:26:00;97198.75;;;16.77;100.00
28181;BME280;15464;50.988;10.318;2023-08-01T07:28:27;97198.72;;;16.84;100.00
28181;BME280;15464;50.988;10.318;2023-08-01T07:31:05;97203.66;;;16.80;100.00
28181;BME280;15464;50.988;10.318;2023-08-01T07:33:33;97207.34;;;16.92;100.00
28181;BME280;15464;50.988;10.318;2023-08-01T07:36:00;97200.09;;;16.93;100.00
28181;BME280;15464;50.988;10.318;2023-08-01T07:38:26;97205.06;;;16.96;100.00
28181;BME280;15464;50.988;10.318;2023-08-01T07:40:54;97211.88;;;16.92;100.00
28181;BME280;15464;50.988;10.318;2023-08-01T07:43:21;97211.00;;;17.05;100.00
28181;BME280;15464;50.988;10.318;2023-08-01T07:45:48;97210.72;;;17.13;100.00
28181;BME280;15464;50.988;10.318;2023-08-01T07:48:17;97219.13;;;17.23;100.00
28181;BME280;15464;50.988;10.318;2023-08-01T07:50:43;97215.84;;;17.21;100.00
28181;BME280;15464;50.988;10.318;2023-08-01T07:53:10;97213.78;;;17.23;100.00
28181;BME280;15464;50.988;10.318;2023-08-01T07:55:37;97210.91;;;17.18;100.00
28181;BME280;15464;50.988;10.318;2023-08-01T07:58:04;97223.22;;;17.25;100.00
28181;BME280;15464;50.988;10.318;2023-08-01T08:00:30;97224.22;;;17.31;100.00
28181;BME280;15464;50.988;10.318;2023-08-01T08:02:57;97228.72;;;17.37;100.00
28181;BME280;15464;50.988;10.318;2023-08-01T08:05:24;97227.28;;;17.41;100.00
28181;BME280;15464;50.988;10.318;2023-08-01T08:07:51;97233.97;;;17.19;100.00
28181;BME280;15464;50.988;10.318;2023-08-01T08:10:18;97235.31;;;17.03;100.00
28181;BME280;15464;50.988;10.318;2023-08-01T08:12:45;97224.91;;;16.75;100.00
28181;BME280;15464;50.988;10.318;2023-08-01T08:15:11;97240.00;;;16.50;100.00
28181;BME280;15464;50.988;10.318;2023-08-01T08:17:39;97234.66;;;16.43;100.00
28181;BME280;15464;50.988;10.318;2023-08-01T08:20:07;97256.06;;;16.43;100.00
28181;BME280;15464;50.988;10.318;2023-08-01T08:22:33;97254.44;;;16.36;100.00
28181;BME280;15464;50.988;10.318;2023-08-01T08:25:00;97251.34;;;16.39;100.00
28181;BME280;15464;50.988;10.318;2023-08-01T08:27:27;97249.50;;;16.33;100.00
28181;BME280;15464;50.988;10.318;2023-08-01T08:29:54;97248.88;;;16.31;100.00
28181;BME280;15464;50.988;10.318;2023-08-01T08:32:21;97265.38;;;16.28;100.00
28181;BME280;15464;50.988;10.318;2023-08-01T08:34:48;97281.22;;;16.23;100.00
28181;BME280;15464;50.988;10.318;2023-08-01T08:37:15;97283.66;;;16.24;100.00
28181;BME280;15464;50.988;10.318;2023-08-01T08:39:41;97283.06;;;16.22;100.00
28181;BME280;15464;50.988;10.318;2023-08-01T08:42:08;97292.31;;;16.20;100.00
28181;BME280;15464;50.988;10.318;2023-08-01T08:44:42;97296.84;;;16.19;100.00
28181;BME280;15464;50.988;10.318;2023-08-01T08:47:10;97305.06;;;16.24;100.00
28181;BME280;15464;50.988;10.318;2023-08-01T08:49:38;97301.78;;;16.16;100.00
28181;BME280;15464;50.988;10.318;2023-08-01T08:52:05;97313.94;;;16.11;100.00
28181;BME280;15464;50.988;10.318;2023-08-01T08:54:32;97312.50;;;16.16;100.00
28181;BME280;15464;50.988;10.318;2023-08-01T08:56:59;97321.53;;;16.01;100.00
28181;BME280;15464;50.988;10.318;2023-08-01T08:59:26;97315.38;;;16.07;100.00
28181;BME280;15464;50.988;10.318;2023-08-01T09:01:55;97312.47;;;15.89;100.00
28181;BME280;15464;50.988;10.318;2023-08-01T09:04:22;97321.97;;;15.92;100.00
28181;BME280;15464;50.988;10.318;2023-08-01T09:06:49;97326.25;;;15.80;100.00
28181;BME280;15464;50.988;10.318;2023-08-01T09:09:18;97324.41;;;15.87;100.00
28181;BME280;15464;50.988;10.318;2023-08-01T09:11:52;97321.94;;;15.85;100.00
28181;BME280;15464;50.988;10.318;2023-08-01T09:14:19;97329.16;;;15.91;100.00
28181;BME280;15464;50.988;10.318;2023-08-01T09:16:46;97328.94;;;15.80;100.00
28181;BME280;15464;50.988;10.318;2023-08-01T09:19:18;97333.03;;;15.89;100.00
28181;BME280;15464;50.988;10.318;2023-08-01T09:21:46;97327.72;;;16.02;100.00
28181;BME280;15464;50.988;10.318;2023-08-01T09:24:15;97325.25;;;16.07;100.00
28181;BME280;15464;50.988;10.318;2023-08-01T09:26:43;97331.84;;;16.18;100.00
28181;BME280;15464;50.988;10.318;2023-08-01T09:29:10;97338.44;;;16.22;100.00
28181;BME280;15464;50.988;10.318;2023-08-01T09:31:41;97331.63;;;16.39;100.00
28181;BME280;15464;50.988;10.318;2023-08-01T09:34:23;97326.47;;;16.44;100.00
28181;BME280;15464;50.988;10.318;2023-08-01T09:36:51;97326.91;;;16.47;100.00
28181;BME280;15464;50.988;10.318;2023-08-01T09:39:20;97336.78;;;16.47;100.00
28181;BME280;15464;50.988;10.318;2023-08-01T09:41:55;97326.06;;;16.53;100.00
28181;BME280;15464;50.988;10.318;2023-08-01T09:44:22;97326.66;;;16.75;100.00
28181;BME280;15464;50.988;10.318;2023-08-01T09:49:22;97328.13;;;16.71;100.00
28181;BME280;15464;50.988;10.318;2023-08-01T09:51:50;97326.44;;;16.83;100.00
28181;BME280;15464;50.988;10.318;2023-08-01T09:54:17;97325.41;;;16.84;100.00
28181;BME280;15464;50.988;10.318;2023-08-01T09:56:45;97329.75;;;16.85;100.00
28181;BME280;15464;50.988;10.318;2023-08-01T09:59:13;97334.25;;;16.98;100.00
28181;BME280;15464;50.988;10.318;2023-08-01T10:01:44;97331.31;;;17.00;100.00
28181;BME280;15464;50.988;10.318;2023-08-01T10:04:12;97334.00;;;17.00;100.00
28181;BME280;15464;50.988;10.318;2023-08-01T10:06:42;97341.13;;;17.25;100.00
28181;BME280;15464;50.988;10.318;2023-08-01T10:09:10;97336.19;;;17.29;100.00
28181;BME280;15464;50.988;10.318;2023-08-01T10:11:38;97327.47;;;17.40;100.00
28181;BME280;15464;50.988;10.318;2023-08-01T10:14:06;97328.28;;;17.47;100.00
28181;BME280;15464;50.988;10.318;2023-08-01T10:16:34;97325.72;;;17.65;100.00
28181;BME280;15464;50.988;10.318;2023-08-01T10:19:04;97325.38;;;17.87;100.00
28181;BME280;15464;50.988;10.318;2023-08-01T10:21:32;97337.19;;;17.79;100.00
28181;BME280;15464;50.988;10.318;2023-08-01T10:24:00;97336.00;;;17.68;100.00
28181;BME280;15464;50.988;10.318;2023-08-01T10:26:27;97330.09;;;17.53;99.83
28181;BME280;15464;50.988;10.318;2023-08-01T10:28:54;97335.69;;;17.45;100.00
28181;BME280;15464;50.988;10.318;2023-08-01T10:31:20;97346.41;;;17.45;100.00
28181;BME280;15464;50.988;10.318;2023-08-01T10:33:49;97348.81;;;17.60;100.00
28181;BME280;15464;50.988;10.318;2023-08-01T10:36:22;97352.09;;;17.68;99.03
28181;BME280;15464;50.988;10.318;2023-08-01T10:38:57;97342.31;;;17.81;93.57
28181;BME280;15464;50.988;10.318;2023-08-01T10:41:31;97340.78;;;17.98;90.18
28181;BME280;15464;50.988;10.318;2023-08-01T10:44:09;97329.50;;;18.14;88.97
28181;BME280;15464;50.988;10.318;2023-08-01T10:49:19;97338.25;;;18.34;86.38
28181;BME280;15464;50.988;10.318;2023-08-01T10:51:46;97329.63;;;18.50;87.87
28181;BME280;15464;50.988;10.318;2023-08-01T10:54:20;97333.88;;;18.65;85.91
28181;BME280;15464;50.988;10.318;2023-08-01T10:56:54;97323.22;;;18.76;88.29
28181;BME280;15464;50.988;10.318;2023-08-01T10:59:22;97324.56;;;18.85;82.98
28181;BME280;15464;50.988;10.318;2023-08-01T11:01:50;97328.22;;;19.09;83.24
28181;BME280;15464;50.988;10.318;2023-08-01T11:04:22;97327.63;;;19.07;78.00
28181;BME280;15464;50.988;10.318;2023-08-01T11:06:51;97319.50;;;19.14;78.83
28181;BME280;15464;50.988;10.318;2023-08-01T11:09:20;97317.00;;;18.76;77.59
28181;BME280;15464;50.988;10.318;2023-08-01T11:11:54;97327.44;;;18.66;80.44
28181;BME280;15464;50.988;10.318;2023-08-01T11:14:28;97332.31;;;18.50;80.80
28181;BME280;15464;50.988;10.318;2023-08-01T11:16:56;97339.94;;;18.53;81.47
28181;BME280;15464;50.988;10.318;2023-08-01T11:19:25;97345.78;;;18.69;82.68
28181;BME280;15464;50.988;10.318;2023-08-01T11:21:53;97346.53;;;18.58;81.22
28181;BME280;15464;50.988;10.318;2023-08-01T11:24:20;97352.06;;;18.63;82.72
28181;BME280;15464;50.988;10.318;2023-08-01T11:26:48;97358.38;;;18.43;79.74
28181;BME280;15464;50.988;10.318;2023-08-01T11:29:15;97360.88;;;18.70;81.45
28181;BME280;15464;50.988;10.318;2023-08-01T11:31:55;97371.66;;;18.88;77.96
28181;BME280;15464;50.988;10.318;2023-08-01T11:34:23;97367.28;;;18.69;80.82
28181;BME280;15464;50.988;10.318;2023-08-01T11:36:50;97370.56;;;18.46;80.79
28181;BME280;15464;50.988;10.318;2023-08-01T11:39:17;97378.94;;;18.31;83.00
28181;BME280;15464;50.988;10.318;2023-08-01T11:41:44;97375.84;;;18.03;80.88
28181;BME280;15464;50.988;10.318;2023-08-01T11:44:11;97376.09;;;18.51;81.32
28181;BME280;15464;50.988;10.318;2023-08-01T11:46:38;97366.47;;;19.29;77.41
28181;BME280;15464;50.988;10.318;2023-08-01T11:49:07;97360.31;;;19.41;73.29
28181;BME280;15464;50.988;10.318;2023-08-01T11:51:41;97351.31;;;19.83;70.30
28181;BME280;15464;50.988;10.318;2023-08-01T11:54:09;97352.25;;;20.30;71.55
28181;BME280;15464;50.988;10.318;2023-08-01T11:56:38;97343.88;;;20.50;71.01
28181;BME280;15464;50.988;10.318;2023-08-01T11:59:16;97346.50;;;20.80;65.33
28181;BME280;15464;50.988;10.318;2023-08-01T12:01:46;97355.47;;;21.09;65.13
28181;BME280;15464;50.988;10.318;2023-08-01T12:04:28;97341.28;;;21.13;65.02
28181;BME280;15464;50.988;10.318;2023-08-01T12:06:55;97352.09;;;20.67;66.48
28181;BME280;15464;50.988;10.318;2023-08-01T12:09:22;97354.66;;;20.50;64.70
28181;BME280;15464;50.988;10.318;2023-08-01T12:11:59;97351.63;;;20.46;67.65
28181;BME280;15464;50.988;10.318;2023-08-01T12:14:30;97358.53;;;20.42;65.59
28181;BME280;15464;50.988;10.318;2023-08-01T12:16:57;97360.88;;;20.09;65.76
28181;BME280;15464;50.988;10.318;2023-08-01T12:19:24;97363.72;;;19.84;67.51
28181;BME280;15464;50.988;10.318;2023-08-01T12:21:50;97366.34;;;20.44;69.63
28181;BME280;15464;50.988;10.318;2023-08-01T12:24:17;97367.44;;;21.13;67.59
28181;BME280;15464;50.988;10.318;2023-08-01T12:26:44;97354.75;;;21.48;67.12
28181;BME280;15464;50.988;10.318;2023-08-01T12:29:10;97360.75;;;22.07;66.33
28181;BME280;15464;50.988;10.318;2023-08-01T12:31:38;97360.88;;;22.00;66.98
28181;BME280;15464;50.988;10.318;2023-08-01T12:34:05;97362.69;;;21.55;68.50
28181;BME280;15464;50.988;10.318;2023-08-01T12:36:32;97367.00;;;21.16;60.93
28181;BME280;15464;50.988;10.318;2023-08-01T12:38:59;97372.84;;;20.55;59.52
28181;BME280;15464;50.988;10.318;2023-08-01T12:41:25;97403.78;;;19.92;63.99
28181;BME280;15464;50.988;10.318;2023-08-01T12:43:52;97390.16;;;19.87;65.28
28181;BME280;15464;50.988;10.318;2023-08-01T12:46:19;97402.56;;;19.88;65.67
28181;BME280;15464;50.988;10.318;2023-08-01T12:48:45;97405.97;;;19.65;66.75